Terminal Aerodrome Forecast
Issued by NWS

Home | Current Version | Previous Version | Text Only | Print | Product List | Glossary Off
Versions: 1 2 3 4 5 6 7 8 9 10 11 12 13 14 15 16 17 18 19 20 21 22 23 24 25

599
FTUS43 KLOT 251120
TAFORD
TAF
KORD 251120Z 2512/2618 27008KT P6SM SKC
     FM251500 29014G21KT P6SM FEW035 BKN050
     FM260100 27010KT P6SM SCT050
     FM261500 28015G24KT P6SM BKN050=

USA.gov is the U.S. government's official web portal to all federal, state and local government web resources and services.